Time;durP1;ratioP1;P1;durP2;ratioP2;P2;SDS_P1;SDS_P2;PMS_P1;PMS_P2;Temp;Humidity;BMP_temperature;BMP_pressure;BME280_temperature;BME280_humidity;BME280_pressure;Samples;Min_cycle;Max_cycle;Signal;HPM_P1;HPM_P2
2021/11/09 00:01:38;;;;;;;19.70;13.00;;;;;;;5.40;84.02;97341.68;105221;1314;27292;-84
2021/11/09 00:04:09;;;;;;;18.20;12.10;;;;;;;5.37;84.27;97346.21;105274;1316;29482;-84
2021/11/09 00:06:42;;;;;;;17.30;12.30;;;;;;;5.36;84.08;97346.02;105238;1309;25875;-84
2021/11/09 00:09:16;;;;;;;18.10;13.30;;;;;;;5.35;84.44;97345.19;105341;1310;26375;-84
2021/11/09 00:11:47;;;;;;;17.20;12.20;;;;;;;5.35;84.38;97346.77;105332;1314;26990;-85
2021/11/09 00:14:16;;;;;;;;;;;;;;;5.36;84.57;97346.03;105258;1310;25663;-86
2021/11/09 00:16:49;;;;;;;20.80;12.20;;;;;;;5.34;84.67;97349.55;105236;1316;27307;-85
2021/11/09 00:19:21;;;;;;;19.00;12.40;;;;;;;5.33;84.64;97348.52;105248;1313;25599;-85
2021/11/09 00:21:50;;;;;;;;;;;;;;;5.34;84.83;97351.90;105435;1310;25332;-85
2021/11/09 00:24:21;;;;;;;16.90;11.80;;;;;;;5.35;85.09;97358.89;105300;1314;27766;-85
2021/11/09 00:26:50;;;;;;;;;;;;;;;5.36;84.90;97356.45;105418;1310;29514;-84
2021/11/09 00:29:20;;;;;;;17.90;11.00;;;;;;;5.39;85.00;97359.65;105377;1314;24907;-85
2021/11/09 00:31:49;;;;;;;;;;;;;;;5.41;84.95;97362.16;105349;1316;32184;-85
2021/11/09 00:34:20;;;;;;;16.80;11.50;;;;;;;5.42;85.09;97364.62;105298;1314;49665;-85
2021/11/09 00:36:51;;;;;;;17.90;12.60;;;;;;;5.42;85.10;97366.46;105391;1310;29318;-85
2021/11/09 00:39:22;;;;;;;15.70;10.70;;;;;;;5.43;85.22;97367.74;105402;1313;27082;-85
2021/11/09 00:41:53;;;;;;;18.30;12.00;;;;;;;5.46;85.06;97368.42;105265;1309;26691;-85
2021/11/09 00:44:24;;;;;;;16.30;11.10;;;;;;;5.48;84.89;97368.42;105238;1309;26034;-85
2021/11/09 00:46:55;;;;;;;18.80;11.50;;;;;;;5.49;84.98;97368.95;105262;1315;26191;-84
2021/11/09 00:49:26;;;;;;;18.50;12.70;;;;;;;5.49;85.04;97369.35;105326;1314;25551;-85
2021/11/09 00:51:57;;;;;;;17.10;11.30;;;;;;;5.47;85.27;97371.52;105354;1309;29237;-85
2021/11/09 00:54:28;;;;;;;18.00;11.80;;;;;;;5.48;85.32;97373.89;105108;1313;29655;-84
2021/11/09 00:56:59;;;;;;;16.30;10.70;;;;;;;5.49;85.60;97372.35;105335;1309;27551;-85
2021/11/09 00:59:30;;;;;;;14.20;9.50;;;;;;;5.51;85.59;97367.36;105317;1310;25128;-85
2021/11/09 01:01:59;;;;;;;;;;;;;;;5.53;85.75;97371.00;105277;1314;26164;-85
2021/11/09 01:04:31;;;;;;;16.90;10.20;;;;;;;5.55;85.65;97369.14;105361;1310;26499;-85
2021/11/09 01:07:04;;;;;;;15.90;9.70;;;;;;;5.54;85.66;97370.02;105362;1310;25128;-85
2021/11/09 01:09:34;;;;;;;15.50;11.30;;;;;;;5.51;85.96;97373.42;105311;1313;28957;-85
2021/11/09 01:12:08;;;;;;;16.20;10.90;;;;;;;5.50;85.91;97370.23;105330;1315;26582;-85
2021/11/09 01:14:39;;;;;;;14.40;10.80;;;;;;;5.48;86.04;97370.33;105320;1314;27538;-85
2021/11/09 01:17:10;;;;;;;16.40;11.40;;;;;;;5.45;86.25;97371.84;105324;1310;27517;-85
2021/11/09 01:19:41;;;;;;;16.50;10.80;;;;;;;5.44;86.38;97368.17;105317;1315;25431;-85
2021/11/09 01:22:12;;;;;;;17.20;11.20;;;;;;;5.43;86.25;97367.22;105254;1309;24855;-85
2021/11/09 01:24:43;;;;;;;17.70;11.00;;;;;;;5.43;86.48;97368.31;105310;1310;27409;-85
2021/11/09 01:27:14;;;;;;;17.30;11.30;;;;;;;5.44;86.41;97372.83;105263;1314;25036;-85
2021/11/09 01:29:43;;;;;;;;;;;;;;;5.44;86.63;97368.45;105320;1314;44957;-85
2021/11/09 01:32:13;;;;;;;15.10;11.20;;;;;;;5.45;86.53;97369.94;105380;1313;27013;-85
2021/11/09 01:34:42;;;;;;;;;;;;;;;5.44;86.76;97373.64;105356;1309;26515;-85
2021/11/09 01:37:13;;;;;;;19.00;11.70;;;;;;;5.44;86.83;97376.48;105265;1313;26000;-85
2021/11/09 01:39:42;;;;;;;;;;;;;;;5.44;86.90;97375.98;105252;1309;28583;-85
2021/11/09 01:42:13;;;;;;;15.40;9.80;;;;;;;5.44;87.00;97374.44;105250;1312;26246;-85
2021/11/09 01:44:44;;;;;;;14.40;9.20;;;;;;;5.46;86.91;97374.13;105279;1309;26567;-85
2021/11/09 01:47:15;;;;;;;14.70;9.40;;;;;;;5.50;87.00;97373.39;105325;1313;26141;-85
2021/11/09 01:49:46;;;;;;;13.30;8.30;;;;;;;5.54;86.93;97373.01;105335;1315;27329;-85
2021/11/09 01:52:17;;;;;;;12.40;8.30;;;;;;;5.57;87.06;97368.86;105287;1313;29456;-85
2021/11/09 01:54:46;;;;;;;;;;;;;;;5.58;87.09;97367.15;105326;1315;26128;-85
2021/11/09 01:57:17;;;;;;;8.20;4.80;;;;;;;5.58;87.22;97370.30;105273;1316;28555;-85
2021/11/09 01:59:48;;;;;;;10.30;6.90;;;;;;;5.58;87.45;97372.64;105397;1309;26230;-85
2021/11/09 02:02:19;;;;;;;10.80;7.10;;;;;;;5.58;87.46;97375.67;105330;1315;26248;-85
2021/11/09 02:04:50;;;;;;;10.70;7.00;;;;;;;5.58;87.74;97378.56;105356;1314;27931;-86
2021/11/09 02:07:19;;;;;;;;;;;;;;;5.59;87.69;97380.53;105277;1309;26389;-85
2021/11/09 02:09:50;;;;;;;9.70;6.60;;;;;;;5.58;87.67;97383.63;105291;1310;28007;-85
2021/11/09 02:12:21;;;;;;;10.30;7.20;;;;;;;5.58;87.95;97383.61;105375;1310;37951;-85
2021/11/09 02:14:52;;;;;;;10.80;7.40;;;;;;;5.57;88.05;97385.45;105409;1315;28708;-85
2021/11/09 02:17:24;;;;;;;11.30;7.90;;;;;;;5.58;88.11;97389.20;105372;1316;26476;-83
2021/11/09 02:19:56;;;;;;;12.10;8.40;;;;;;;5.58;88.03;97392.10;105314;1309;27969;-85
2021/11/09 02:22:27;;;;;;;12.90;8.60;;;;;;;5.60;88.07;97393.13;105214;1309;31216;-84
2021/11/09 02:24:59;;;;;;;14.40;7.40;;;;;;;5.60;88.19;97395.23;105178;1314;26566;-85
2021/11/09 02:27:29;;;;;;;10.60;6.70;;;;;;;5.59;88.03;97397.39;105349;1314;28018;-85
2021/11/09 02:29:58;;;;;;;;;;;;;;;5.61;88.08;97396.73;105354;1310;25544;-85
2021/11/09 02:32:29;;;;;;;10.30;7.10;;;;;;;5.62;88.06;97399.33;105279;1313;26122;-85
2021/11/09 02:34:58;;;;;;;;;;;;;;;5.62;88.23;97400.11;105358;1309;26689;-85
2021/11/09 02:37:29;;;;;;;11.90;8.00;;;;;;;5.63;88.19;97404.23;105347;1314;25654;-85
2021/11/09 02:40:00;;;;;;;10.70;6.30;;;;;;;5.63;88.09;97407.56;105311;1314;29204;-85
2021/11/09 02:42:36;;;;;;;9.10;6.10;;;;;;;5.64;88.34;97405.50;105238;1313;27572;-85
2021/11/09 02:45:13;;;;;;;10.30;6.40;;;;;;;5.64;88.45;97407.40;105352;1309;25601;-84
2021/11/09 02:47:52;;;;;;;11.30;7.70;;;;;;;5.65;88.51;97411.52;105160;1315;26053;-85
2021/11/09 02:50:27;;;;;;;9.50;7.10;;;;;;;5.64;88.67;97408.62;105363;1314;29302;-83
2021/11/09 02:53:01;;;;;;;10.90;6.20;;;;;;;5.63;88.93;97410.80;105198;1314;29218;-86
2021/11/09 02:55:34;;;;;;;11.10;7.60;;;;;;;5.63;88.93;97416.30;105291;1314;28378;-85
2021/11/09 02:58:17;;;;;;;10.80;7.60;;;;;;;5.62;88.78;97415.42;105177;1313;25193;-85
2021/11/09 03:01:02;;;;;;;11.10;7.60;;;;;;;5.62;88.99;97419.67;105349;1309;26039;-85
2021/11/09 03:03:36;;;;;;;10.30;7.00;;;;;;;5.61;88.94;97418.27;105364;1310;26625;-85
2021/11/09 03:06:22;;;;;;;12.50;8.60;;;;;;;5.62;89.10;97420.89;105278;1310;29324;-85
2021/11/09 03:08:58;;;;;;;13.20;9.40;;;;;;;5.61;89.24;97423.41;105303;1309;28594;-84
2021/11/09 03:11:29;;;;;;;11.70;7.00;;;;;;;5.61;89.50;97430.45;105306;1313;27443;-84
2021/11/09 03:14:00;;;;;;;11.20;7.80;;;;;;;5.60;89.56;97431.64;105274;1314;26615;-84
2021/11/09 03:16:34;;;;;;;10.70;7.30;;;;;;;5.58;89.85;97436.86;105311;1309;24938;-84
2021/11/09 03:19:15;;;;;;;9.50;6.40;;;;;;;5.57;89.73;97438.41;105293;1309;26770;-85
2021/11/09 03:44:27;;;;;;;11.20;6.50;;;;;;;5.52;90.96;97460.88;105282;1314;26038;-84
2021/11/09 03:47:01;;;;;;;10.90;7.80;;;;;;;5.52;91.03;97463.91;105321;1309;38282;-85
2021/11/09 03:49:35;;;;;;;10.90;7.20;;;;;;;5.52;91.10;97462.98;105329;1309;25908;-85
2021/11/09 03:52:13;;;;;;;13.20;7.70;;;;;;;5.53;91.03;97461.62;105318;1310;27401;-85
2021/11/09 03:54:55;;;;;;;11.80;8.30;;;;;;;5.53;91.16;97467.09;105300;1313;35183;-85
2021/11/09 03:57:28;;;;;;;9.70;6.90;;;;;;;5.53;91.27;97473.61;105346;1309;26013;-85
2021/11/09 04:00:11;;;;;;;10.80;7.20;;;;;;;5.50;91.33;97476.96;105226;1309;25718;-85
2021/11/09 04:02:51;;;;;;;10.70;6.00;;;;;;;5.49;91.40;97476.11;105258;1314;27936;-85
2021/11/09 04:05:26;;;;;;;10.90;7.60;;;;;;;5.48;91.46;97475.55;105355;1309;25800;-85
2021/11/09 04:08:02;;;;;;;10.60;6.60;;;;;;;5.47;91.59;97479.39;105325;1309;25638;-85
2021/11/09 04:10:40;;;;;;;10.10;6.90;;;;;;;5.46;91.61;97482.63;105306;1309;29999;-85
2021/11/09 04:13:27;;;;;;;9.50;6.10;;;;;;;5.46;91.39;97480.56;105300;1309;25069;-85
2021/11/09 04:16:15;;;;;;;10.40;6.70;;;;;;;5.44;91.81;97477.64;105342;1309;26031;-85
2021/11/09 04:18:56;;;;;;;11.50;6.10;;;;;;;5.42;91.81;97479.05;105284;1310;25724;-85
2021/11/09 04:21:42;;;;;;;9.70;6.30;;;;;;;5.41;92.03;97485.39;105271;1309;25639;-85
2021/11/09 04:24:30;;;;;;;8.60;5.70;;;;;;;5.40;92.25;97485.16;105316;1310;27217;-85
2021/11/09 04:27:08;;;;;;;7.70;5.20;;;;;;;5.39;92.24;97490.30;105310;1309;25447;-85
2021/11/09 05:01:18;;;;;;;7.30;4.80;;;;;;;5.35;93.42;97517.91;105342;1314;27925;-85
2021/11/09 05:09:36;;;;;;;8.60;4.50;;;;;;;5.30;93.97;97531.42;105091;1314;25637;-85
2021/11/09 05:12:08;;;;;;;6.90;5.30;;;;;;;5.28;94.08;97534.29;105282;1313;26171;-85
2021/11/09 05:14:38;;;;;;;8.30;5.40;;;;;;;5.29;94.03;97542.69;105343;1309;26756;-85
2021/11/09 05:17:09;;;;;;;9.40;6.00;;;;;;;5.28;94.16;97544.32;105343;1309;26892;-85
2021/11/09 05:19:40;;;;;;;9.80;6.10;;;;;;;5.27;94.37;97545.50;105319;1310;25704;-85
2021/11/09 05:22:11;;;;;;;8.90;5.80;;;;;;;5.27;94.28;97546.96;105323;1315;26313;-85
2021/11/09 05:24:42;;;;;;;;;;;;;;;5.27;94.41;97550.48;105350;1312;26196;-85
2021/11/09 05:27:15;;;;;;;8.60;5.20;;;;;;;5.25;94.46;97551.55;105297;1316;24332;-85
2021/11/09 05:29:46;;;;;;;6.80;4.40;;;;;;;5.26;94.52;97557.36;105327;1310;27909;-85
2021/11/09 05:32:17;;;;;;;7.70;5.30;;;;;;;5.27;94.56;97555.59;105246;1310;61795;-85
2021/11/09 05:34:48;;;;;;;8.00;5.00;;;;;;;5.26;94.52;97558.94;105387;1310;27813;-85
2021/11/09 05:37:22;;;;;;;7.70;4.60;;;;;;;5.26;94.47;97561.13;105277;1310;59941;-85
2021/11/09 05:39:54;;;;;;;8.40;5.00;;;;;;;5.25;94.69;97565.84;105217;1310;227977;-85
2021/11/09 05:42:26;;;;;;;8.20;4.60;;;;;;;5.24;94.59;97573.61;105349;1309;27465;-84
2021/11/09 05:44:57;;;;;;;7.10;3.50;;;;;;;5.24;94.83;97575.23;105327;1309;25962;-85
2021/11/09 05:47:28;;;;;;;6.60;4.00;;;;;;;5.25;94.82;97584.72;105292;1309;27464;-85
2021/11/09 05:49:59;;;;;;;4.60;2.90;;;;;;;5.27;94.90;97591.09;105235;1309;28078;-85
2021/11/09 05:52:30;;;;;;;6.70;3.20;;;;;;;5.30;94.74;97593.15;105251;1314;25548;-85
2021/11/09 05:55:01;;;;;;;6.20;3.10;;;;;;;5.32;94.72;97594.21;105292;1309;27446;-84
2021/11/09 05:57:32;;;;;;;3.90;2.70;;;;;;;5.33;94.51;97599.09;105327;1309;29727;-85
2021/11/09 06:00:03;;;;;;;5.60;3.50;;;;;;;5.35;94.53;97607.22;105241;1310;28841;-85
2021/11/09 06:02:34;;;;;;;4.40;2.50;;;;;;;5.38;94.27;97617.63;105238;1310;29379;-85
2021/11/09 06:05:07;;;;;;;4.40;3.10;;;;;;;5.39;94.31;97621.66;105313;1314;25835;-86
2021/11/09 06:07:38;;;;;;;5.00;2.90;;;;;;;5.41;94.21;97634.29;105298;1310;26372;-85
2021/11/09 06:10:10;;;;;;;4.50;2.80;;;;;;;5.43;94.09;97638.27;105243;1309;27261;-85
2021/11/09 06:12:42;;;;;;;4.20;3.00;;;;;;;5.44;93.94;97643.71;105325;1309;26965;-85
2021/11/09 06:15:13;;;;;;;5.40;3.20;;;;;;;5.44;94.00;97646.30;105271;1315;25350;-85
2021/11/09 06:17:45;;;;;;;6.90;3.60;;;;;;;5.45;94.13;97650.38;105306;1315;27787;-84
2021/11/09 06:20:16;;;;;;;6.60;3.80;;;;;;;5.47;93.87;97653.27;105284;1310;42018;-84
2021/11/09 06:22:47;;;;;;;7.70;4.60;;;;;;;5.49;93.96;97657.22;105314;1310;26972;-85
2021/11/09 06:25:22;;;;;;;8.20;5.20;;;;;;;5.50;93.99;97659.52;105356;1310;27703;-85
2021/11/09 06:27:53;;;;;;;9.50;5.60;;;;;;;5.51;93.85;97664.77;105346;1309;45443;-84
2021/11/09 06:30:25;;;;;;;8.80;5.80;;;;;;;5.52;93.69;97671.15;105277;1310;39665;-84
2021/11/09 06:32:55;;;;;;;8.80;5.50;;;;;;;5.54;93.92;97675.63;105321;1313;25280;-84
2021/11/09 06:35:27;;;;;;;9.20;5.00;;;;;;;5.56;93.75;97682.52;105280;1309;27358;-85
2021/11/09 06:37:57;;;;;;;8.50;5.20;;;;;;;5.55;93.53;97690.50;105306;1310;27586;-84
2021/11/09 06:40:28;;;;;;;7.50;4.50;;;;;;;5.55;93.82;97695.96;105319;1315;25689;-84
2021/11/09 06:42:59;;;;;;;6.30;4.50;;;;;;;5.55;93.84;97703.48;105315;1309;28828;-84
2021/11/09 06:45:30;;;;;;;6.40;4.30;;;;;;;5.56;93.79;97712.86;105278;1310;27060;-84
2021/11/09 06:48:00;;;;;;;8.10;4.70;;;;;;;5.58;93.77;97720.65;105286;1309;26138;-84
2021/11/09 06:50:29;;;;;;;;;;;;;;;5.61;93.67;97726.73;105325;1310;27989;-84
2021/11/09 06:53:01;;;;;;;6.10;3.90;;;;;;;5.61;93.50;97735.01;105239;1314;35966;-85
2021/11/09 06:55:35;;;;;;;6.30;3.40;;;;;;;5.60;93.74;97736.23;105290;1310;28055;-84
2021/11/09 06:58:06;;;;;;;6.10;4.10;;;;;;;5.59;93.82;97743.66;105283;1316;26169;-85
2021/11/09 07:00:38;;;;;;;5.30;3.50;;;;;;;5.59;93.54;97745.56;105266;1309;25536;-84
2021/11/09 07:03:09;;;;;;;4.90;3.70;;;;;;;5.58;93.77;97751.80;105237;1314;27876;-84
2021/11/09 07:05:38;;;;;;;;;;;;;;;5.57;93.72;97757.72;105270;1313;28395;-84
2021/11/09 07:08:09;;;;;;;6.70;4.00;;;;;;;5.57;93.92;97759.34;105244;1309;29039;-84
2021/11/09 07:10:40;;;;;;;6.70;3.40;;;;;;;5.56;93.77;97769.43;105287;1309;33147;-84
2021/11/09 07:13:10;;;;;;;6.70;4.10;;;;;;;5.57;94.00;97775.70;105273;1314;25861;-85
2021/11/09 07:15:39;;;;;;;;;;;;;;;5.57;93.76;97776.66;105272;1309;26085;-84
2021/11/09 07:18:13;;;;;;;9.40;5.20;;;;;;;5.57;93.86;97777.14;105296;1310;28815;-84
2021/11/09 07:20:44;;;;;;;7.90;5.30;;;;;;;5.58;93.74;97783.54;105275;1309;26328;-84
2021/11/09 07:23:15;;;;;;;9.00;6.10;;;;;;;5.58;93.75;97788.59;105286;1315;25990;-84
2021/11/09 07:25:46;;;;;;;10.50;6.60;;;;;;;5.59;93.74;97792.59;105284;1309;46875;-85
2021/11/09 07:28:17;;;;;;;13.00;7.80;;;;;;;5.59;93.68;97797.96;105247;1313;26325;-84
2021/11/09 07:30:57;;;;;;;13.10;8.70;;;;;;;5.60;93.52;97804.10;105303;1310;28822;-84
2021/11/09 07:33:28;;;;;;;14.20;9.40;;;;;;;5.58;93.48;97807.61;105222;1309;26286;-84
2021/11/09 07:35:59;;;;;;;11.90;7.60;;;;;;;5.54;93.71;97813.11;105336;1313;28538;-84
2021/11/09 07:38:30;;;;;;;14.90;11.10;;;;;;;5.49;93.84;97813.02;105256;1310;37581;-84
2021/11/09 07:41:01;;;;;;;16.90;12.40;;;;;;;5.46;93.68;97824.95;105315;1314;27569;-84
2021/11/09 07:43:32;;;;;;;19.20;9.30;;;;;;;5.44;93.83;97822.54;105199;1314;28805;-85
2021/11/09 07:46:03;;;;;;;16.20;11.20;;;;;;;5.43;93.82;97824.45;105298;1314;29752;-84
2021/11/09 07:48:34;;;;;;;15.50;10.50;;;;;;;5.43;94.03;97827.49;105314;1310;30882;-85
2021/11/09 07:51:05;;;;;;;14.60;10.60;;;;;;;5.42;93.69;97830.21;105168;1309;28366;-84
2021/11/09 07:53:38;;;;;;;17.10;10.70;;;;;;;5.40;94.14;97829.88;105224;1316;30094;-84
2021/11/09 07:56:16;;;;;;;17.70;11.50;;;;;;;5.37;94.21;97837.70;105267;1309;28824;-85
2021/11/09 07:59:02;;;;;;;17.60;11.50;;;;;;;5.37;94.23;97840.90;105362;1310;27280;-85
2021/11/09 08:01:37;;;;;;;15.70;11.40;;;;;;;5.37;94.26;97846.00;105250;1309;30733;-86
2021/11/09 08:04:11;;;;;;;17.00;11.10;;;;;;;5.38;94.28;97845.46;105229;1315;26826;-86
2021/11/09 08:06:48;;;;;;;12.20;8.40;;;;;;;5.41;94.33;97848.39;105301;1309;26646;-86
2021/11/09 08:09:22;;;;;;;16.10;10.70;;;;;;;5.44;94.43;97852.68;105246;1315;29107;-86
2021/11/09 08:11:53;;;;;;;15.50;9.50;;;;;;;5.47;94.09;97857.99;105355;1309;28655;-86
2021/11/09 08:14:23;;;;;;;14.70;10.50;;;;;;;5.50;94.05;97864.52;105253;1309;30283;-84
2021/11/09 08:16:55;;;;;;;17.00;10.80;;;;;;;5.52;94.00;97868.42;105309;1314;38919;-84
2021/11/09 08:19:26;;;;;;;16.80;10.80;;;;;;;5.54;93.87;97873.21;105322;1315;25591;-86
2021/11/09 08:21:59;;;;;;;18.80;11.70;;;;;;;5.57;93.81;97874.15;105301;1313;27719;-85
2021/11/09 08:24:31;;;;;;;13.90;10.10;;;;;;;5.62;93.90;97880.63;105314;1315;28948;-85
2021/11/09 08:27:05;;;;;;;13.70;9.40;;;;;;;5.67;93.57;97885.05;105349;1309;27177;-86
2021/11/09 08:29:35;;;;;;;12.60;8.90;;;;;;;5.73;93.68;97887.26;105328;1313;29304;-85
2021/11/09 08:32:11;;;;;;;13.10;9.50;;;;;;;5.76;93.27;97888.56;105200;1312;25144;-85
2021/11/09 08:34:41;;;;;;;12.10;8.80;;;;;;;5.76;93.07;97890.21;105334;1309;28517;-85
2021/11/09 08:37:11;;;;;;;;;;;;;;;5.78;92.84;97893.02;105362;1309;27152;-86
2021/11/09 08:39:43;;;;;;;10.70;7.80;;;;;;;5.78;92.86;97895.40;105314;1309;25994;-85
2021/11/09 08:42:20;;;;;;;12.20;7.80;;;;;;;5.79;92.71;97901.84;105283;1309;29316;-86
2021/11/09 08:44:54;;;;;;;11.80;8.30;;;;;;;5.77;92.82;97902.55;105382;1310;26024;-85
2021/11/09 08:47:27;;;;;;;13.60;8.70;;;;;;;5.77;92.65;97902.00;105314;1313;26902;-85
2021/11/09 08:49:58;;;;;;;11.50;7.70;;;;;;;5.81;92.75;97905.90;105259;1315;26935;-86
2021/11/09 08:52:31;;;;;;;12.90;8.10;;;;;;;5.82;92.51;97912.45;105300;1314;28562;-86
2021/11/09 08:55:18;;;;;;;12.80;7.80;;;;;;;5.83;92.54;97916.08;105316;1309;26209;-86
2021/11/09 08:58:19;;;;;;;12.30;7.40;;;;;;;5.86;92.50;97918.04;105319;1310;27116;-86
2021/11/09 09:01:15;;;;;;;12.20;8.60;;;;;;;5.84;92.50;97921.61;105359;1310;34794;-86
2021/11/09 09:06:35;;;;;;;13.10;9.20;;;;;;;5.83;92.04;97928.27;105354;1314;25575;-85
2021/11/09 09:09:07;;;;;;;14.10;8.60;;;;;;;5.83;92.15;97933.29;105303;1313;28662;-85
2021/11/09 09:11:38;;;;;;;13.20;8.20;;;;;;;5.84;92.18;97942.34;105336;1310;28866;-85
2021/11/09 09:14:09;;;;;;;12.10;8.40;;;;;;;5.84;92.00;97947.20;105356;1310;27446;-86
2021/11/09 09:16:45;;;;;;;12.50;8.30;;;;;;;5.86;92.06;97951.30;105282;1309;31028;-86
2021/11/09 09:19:17;;;;;;;12.10;7.60;;;;;;;5.90;92.00;97957.93;105276;1310;26192;-86
2021/11/09 09:21:49;;;;;;;13.20;8.70;;;;;;;5.91;91.85;97960.29;105342;1315;26669;-84
2021/11/09 09:24:34;;;;;;;10.20;7.00;;;;;;;5.91;91.69;97965.23;105446;1310;29642;-85
2021/11/09 09:27:15;;;;;;;10.70;7.20;;;;;;;5.93;91.73;97964.86;105229;1309;29249;-84
2021/11/09 09:29:56;;;;;;;11.20;7.90;;;;;;;5.95;91.38;97966.58;105305;1309;30383;-85
2021/11/09 09:32:42;;;;;;;11.60;7.80;;;;;;;5.97;91.33;97968.27;105335;1313;25998;-85
2021/11/09 09:52:31;;;;;;;8.70;6.60;;;;;;;6.10;90.39;97988.48;105309;1309;27453;-85
2021/11/09 09:58:01;;;;;;;12.50;7.80;;;;;;;6.11;90.13;97994.84;105022;1316;26454;-85
2021/11/09 10:00:33;;;;;;;10.80;6.90;;;;;;;6.13;90.19;97997.25;105319;1309;25802;-85
2021/11/09 10:03:05;;;;;;;9.40;6.80;;;;;;;6.14;90.23;97997.65;105334;1315;27289;-85
2021/11/09 10:05:39;;;;;;;12.80;7.90;;;;;;;6.17;90.48;97993.80;105346;1315;27778;-85
2021/11/09 10:08:16;;;;;;;9.10;6.30;;;;;;;6.20;90.37;97999.55;105308;1314;28435;-85
2021/11/09 10:10:48;;;;;;;11.10;6.30;;;;;;;6.25;90.49;98001.77;105289;1314;27121;-85
2021/11/09 10:13:21;;;;;;;10.30;6.80;;;;;;;6.27;90.16;98004.06;105308;1310;27156;-85
2021/11/09 10:15:57;;;;;;;9.20;6.90;;;;;;;6.29;90.00;98006.34;105382;1313;40376;-86
2021/11/09 10:18:31;;;;;;;11.20;6.80;;;;;;;6.33;89.88;98003.80;105334;1314;27317;-85
2021/11/09 10:21:05;;;;;;;10.40;7.00;;;;;;;6.42;89.81;98005.27;105320;1309;26047;-85
2021/11/09 10:23:36;;;;;;;10.90;6.20;;;;;;;6.47;89.71;98009.21;105196;1314;31187;-85
2021/11/09 10:26:10;;;;;;;;;;;;;;;6.52;89.79;98014.48;105347;1309;27548;-85
2021/11/09 10:28:43;;;;;;;8.30;5.70;;;;;;;6.56;89.31;98013.76;105318;1310;28037;-85
2021/11/09 10:31:16;;;;;;;10.40;6.80;;;;;;;6.56;89.24;98020.93;105292;1316;25241;-85
2021/11/09 10:33:50;;;;;;;9.00;5.70;;;;;;;6.61;89.32;98023.40;105310;1309;24983;-85
2021/11/09 10:36:26;;;;;;;7.30;5.50;;;;;;;6.66;89.09;98023.80;105371;1309;29630;-85
2021/11/09 10:39:15;;;;;;;12.10;6.50;;;;;;;6.67;88.78;98025.90;105403;1309;26355;-85
2021/11/09 10:42:10;;;;;;;9.60;5.80;;;;;;;6.66;88.68;98032.08;105348;1310;25281;-86
2021/11/09 10:44:42;;;;;;;9.20;5.90;;;;;;;6.62;88.44;98034.52;105315;1313;25379;-85
2021/11/09 10:47:21;;;;;;;9.30;6.10;;;;;;;6.60;88.32;98037.95;105343;1309;27736;-85
2021/11/09 10:49:56;;;;;;;11.10;7.40;;;;;;;6.59;88.19;98038.23;105357;1315;25857;-85
2021/11/09 10:52:34;;;;;;;7.70;6.20;;;;;;;6.63;88.27;98040.74;105344;1315;35924;-86
2021/11/09 10:55:13;;;;;;;8.40;5.10;;;;;;;6.67;88.35;98045.08;105279;1309;26701;-86
2021/11/09 10:57:59;;;;;;;11.50;6.70;;;;;;;6.67;88.02;98050.71;105272;1309;26828;-85
2021/11/09 11:03:55;;;;;;;11.20;7.10;;;;;;;6.56;88.02;98052.88;105298;1313;25520;-85
2021/11/09 11:06:29;;;;;;;10.90;6.20;;;;;;;6.49;88.20;98053.88;105353;1309;28048;-85
2021/11/09 11:09:04;;;;;;;8.90;5.90;;;;;;;6.44;88.31;98052.45;105279;1316;25852;-85
2021/11/09 11:11:38;;;;;;;10.80;7.10;;;;;;;6.40;88.44;98055.37;105321;1310;26523;-86
2021/11/09 11:14:13;;;;;;;12.20;7.70;;;;;;;6.40;88.59;98058.94;105344;1309;27254;-86
2021/11/09 11:16:46;;;;;;;10.20;6.60;;;;;;;6.43;88.70;98066.93;105272;1309;25366;-85
2021/11/09 11:19:20;;;;;;;9.00;5.30;;;;;;;6.43;88.63;98065.15;105311;1316;25059;-86
2021/11/09 11:21:51;;;;;;;11.20;6.80;;;;;;;6.44;88.58;98064.28;105395;1309;25907;-86
2021/11/09 11:24:22;;;;;;;11.00;7.50;;;;;;;6.41;88.33;98069.09;105330;1310;25927;-85
2021/11/09 11:26:55;;;;;;;10.40;7.00;;;;;;;6.43;88.60;98074.42;105385;1310;28714;-85
2021/11/09 11:29:30;;;;;;;10.20;6.40;;;;;;;6.44;88.65;98075.35;105281;1315;26997;-85
2021/11/09 11:32:03;;;;;;;7.00;5.20;;;;;;;6.43;88.30;98084.55;105311;1309;28769;-86
2021/11/09 11:34:34;;;;;;;10.20;6.30;;;;;;;6.41;88.35;98084.74;105313;1316;25567;-86
2021/11/09 11:37:05;;;;;;;12.10;6.20;;;;;;;6.39;88.51;98088.65;105335;1315;28975;-86
2021/11/09 11:39:38;;;;;;;9.50;6.80;;;;;;;6.38;88.45;98087.65;105308;1316;27055;-85
2021/11/09 11:42:17;;;;;;;9.80;6.20;;;;;;;6.39;88.68;98093.10;105321;1311;26706;-85
2021/11/09 11:44:58;;;;;;;10.80;7.60;;;;;;;6.39;88.48;98095.25;105289;1314;25869;-86
2021/11/09 11:47:29;;;;;;;12.40;7.90;;;;;;;6.43;88.53;98096.44;105326;1310;33721;-85
2021/11/09 11:50:07;;;;;;;10.30;7.40;;;;;;;6.49;88.52;98094.81;105276;1314;28868;-85
2021/11/09 11:52:46;;;;;;;11.70;7.10;;;;;;;6.50;88.30;98094.64;105325;1314;26621;-85
2021/11/09 11:55:26;;;;;;;11.60;7.10;;;;;;;6.53;88.36;98092.67;105360;1316;25943;-85
2021/11/09 11:58:06;;;;;;;8.70;5.30;;;;;;;6.60;88.38;98096.83;105332;1309;25632;-85
2021/11/09 12:00:52;;;;;;;8.60;5.00;;;;;;;6.67;88.20;98091.83;105341;1314;26730;-85
2021/11/09 12:03:48;;;;;;;9.20;6.10;;;;;;;6.72;88.11;98092.45;105350;1315;32740;-86
2021/11/09 12:06:28;;;;;;;10.00;6.40;;;;;;;6.77;87.88;98095.30;105400;1315;26749;-86
2021/11/09 12:08:59;;;;;;;10.10;5.80;;;;;;;6.81;87.99;98099.80;105329;1310;31725;-84
2021/11/09 12:11:46;;;;;;;9.80;6.20;;;;;;;6.86;87.76;98099.05;105364;1310;27558;-84
2021/11/09 12:14:19;;;;;;;9.10;5.80;;;;;;;6.92;87.70;98099.78;105275;1316;28320;-85
2021/11/09 12:17:03;;;;;;;7.90;5.30;;;;;;;6.99;87.84;98098.23;105355;1315;24842;-86
2021/11/09 12:19:52;;;;;;;10.30;6.20;;;;;;;7.00;87.20;98094.62;105304;1314;34191;-85
2021/11/09 12:22:26;;;;;;;11.60;5.90;;;;;;;6.95;86.75;98095.33;105375;1309;27206;-85
2021/11/09 12:24:59;;;;;;;8.90;5.60;;;;;;;6.90;86.38;98093.63;105323;1315;28702;-85
2021/11/09 12:28:08;;;;;;;7.20;4.80;;;;;;;6.89;86.52;98094.48;105348;1315;28209;-85
2021/11/09 12:30:50;;;;;;;7.50;4.70;;;;;;;6.83;86.16;98094.48;105310;1316;31836;-86
2021/11/09 12:33:23;;;;;;;5.90;3.50;;;;;;;6.79;86.19;98095.36;105451;1316;28635;-86
2021/11/09 12:36:26;;;;;;;6.70;4.60;;;;;;;6.77;86.20;98098.80;105386;1314;26846;-86
2021/11/09 12:38:57;;;;;;;7.90;4.90;;;;;;;6.75;86.16;98097.83;105304;1309;27326;-85
2021/11/09 12:41:31;;;;;;;6.00;3.40;;;;;;;6.74;85.91;98098.35;105310;1314;27062;-86
2021/11/09 12:44:06;;;;;;;7.10;4.30;;;;;;;6.72;85.77;98096.98;105328;1309;28285;-85
2021/11/09 12:46:39;;;;;;;7.40;4.80;;;;;;;6.72;85.52;98100.31;105289;1309;28801;-85
2021/11/09 12:49:13;;;;;;;8.50;5.40;;;;;;;6.72;85.47;98104.62;105285;1310;32647;-85
2021/11/09 12:51:46;;;;;;;5.70;4.30;;;;;;;6.73;85.56;98103.59;105303;1315;31713;-85
2021/11/09 12:54:19;;;;;;;7.50;4.60;;;;;;;6.73;85.24;98107.03;105358;1314;27941;-85
2021/11/09 12:56:54;;;;;;;7.70;5.30;;;;;;;6.74;85.26;98107.84;105304;1316;31662;-85
2021/11/09 12:59:30;;;;;;;8.90;5.70;;;;;;;6.75;85.37;98107.63;105306;1313;27051;-84
2021/11/09 13:02:11;;;;;;;9.30;6.00;;;;;;;6.78;85.58;98104.09;105261;1314;26024;-85
2021/11/09 13:04:48;;;;;;;10.90;6.80;;;;;;;6.78;85.81;98103.69;105313;1314;35394;-85
2021/11/09 13:07:30;;;;;;;10.70;6.30;;;;;;;6.78;85.91;98101.50;105303;1315;25459;-85
2021/11/09 13:10:08;;;;;;;11.20;6.20;;;;;;;6.78;86.14;98101.94;105210;1315;26882;-85
2021/11/09 13:12:41;;;;;;;8.90;6.00;;;;;;;6.80;85.91;98098.71;105353;1313;29004;-85
2021/11/09 13:15:13;;;;;;;10.20;6.80;;;;;;;6.82;85.95;98097.92;105314;1316;26216;-85
2021/11/09 13:17:48;;;;;;;9.10;5.70;;;;;;;6.83;86.13;98098.80;105292;1314;27138;-85
2021/11/09 13:20:24;;;;;;;8.90;5.60;;;;;;;6.85;86.25;98095.95;105370;1315;25911;-85
2021/11/09 13:22:58;;;;;;;8.50;5.70;;;;;;;6.83;86.11;98097.11;105321;1315;26347;-84
2021/11/09 13:25:34;;;;;;;7.30;5.00;;;;;;;6.80;85.93;98096.52;105299;1315;28651;-84
2021/11/09 13:28:17;;;;;;;11.10;6.10;;;;;;;6.78;85.76;98097.81;105353;1315;27226;-85
2021/11/09 13:30:51;;;;;;;11.60;6.50;;;;;;;6.77;86.03;98097.01;105336;1316;28804;-85